createdAt,value
2017-03-22T00:00:43.098Z,1002.57
2017-03-22T00:01:43.113Z,1002.58
2017-03-22T00:02:43.131Z,1002.6
2017-03-22T00:03:43.146Z,1002.61
2017-03-22T00:04:43.161Z,1002.6
2017-03-22T00:05:43.177Z,1002.63
2017-03-22T00:06:43.193Z,1002.63
2017-03-22T00:07:43.208Z,1002.62
2017-03-22T00:08:43.225Z,1002.63
2017-03-22T00:09:43.240Z,1002.64
2017-03-22T00:10:43.257Z,1002.64
2017-03-22T00:11:43.272Z,1002.67
2017-03-22T00:12:43.288Z,1002.72
2017-03-22T00:13:43.303Z,1002.74
2017-03-22T00:14:43.321Z,1002.76
2017-03-22T00:15:43.335Z,1002.75
2017-03-22T00:16:43.350Z,1002.78
2017-03-22T00:17:43.368Z,1002.74
2017-03-22T00:18:43.383Z,1002.75
2017-03-22T00:19:43.398Z,1002.76
2017-03-22T00:20:43.414Z,1002.74
2017-03-22T00:21:43.431Z,1002.73
2017-03-22T00:22:43.446Z,1002.73
2017-03-22T00:23:43.462Z,1002.72
2017-03-22T00:24:43.478Z,1002.75
2017-03-22T00:25:43.493Z,1002.73
2017-03-22T00:26:43.511Z,1002.73
2017-03-22T00:27:43.524Z,1002.75
2017-03-22T00:28:43.540Z,1002.8
2017-03-22T00:29:43.556Z,1002.82
2017-03-22T00:30:43.571Z,1002.86
2017-03-22T00:31:43.587Z,1002.86
2017-03-22T00:32:43.603Z,1002.89
2017-03-22T00:33:43.619Z,1002.86
2017-03-22T00:34:43.636Z,1002.86
2017-03-22T00:35:43.650Z,1002.82
2017-03-22T00:36:43.667Z,1002.79
2017-03-22T00:37:43.683Z,1002.78
2017-03-22T00:38:43.699Z,1002.78
2017-03-22T00:39:43.748Z,1002.8
2017-03-22T00:40:43.731Z,1002.79
2017-03-22T00:41:43.745Z,1002.78
2017-03-22T00:42:43.769Z,1002.77
2017-03-22T00:43:43.777Z,1002.81
2017-03-22T00:44:43.792Z,1002.79
2017-03-22T00:45:43.807Z,1002.84
2017-03-22T00:46:43.824Z,1002.86
2017-03-22T00:47:43.839Z,1002.84
2017-03-22T00:48:43.856Z,1002.86
2017-03-22T00:49:43.871Z,1002.85
2017-03-22T00:50:43.886Z,1002.86
2017-03-22T00:51:43.903Z,1002.89
2017-03-22T00:52:43.919Z,1002.84
2017-03-22T00:53:43.934Z,1002.84
2017-03-22T00:54:43.950Z,1002.83
2017-03-22T00:55:43.965Z,1002.81
2017-03-22T00:56:43.979Z,1002.85
2017-03-22T00:57:43.997Z,1002.84
2017-03-22T00:58:44.013Z,1002.83
2017-03-22T00:59:44.027Z,1002.88
2017-03-22T01:00:44.043Z,1002.86
2017-03-22T01:01:44.058Z,1002.89
2017-03-22T01:02:44.077Z,1002.86
2017-03-22T01:03:44.090Z,1002.87
2017-03-22T01:04:44.108Z,1002.83
2017-03-22T01:05:44.122Z,1002.8
2017-03-22T01:06:44.204Z,1002.8
2017-03-22T01:07:44.153Z,1002.85
2017-03-22T01:08:44.168Z,1002.8
2017-03-22T01:09:44.184Z,1002.82
2017-03-22T01:10:44.200Z,1002.84
2017-03-22T01:11:44.217Z,1002.85
2017-03-22T01:12:44.232Z,1002.79
2017-03-22T01:13:44.249Z,1002.81
2017-03-22T01:14:44.263Z,1002.79
2017-03-22T01:15:44.280Z,1002.85
2017-03-22T01:16:44.295Z,1002.85
2017-03-22T01:17:44.313Z,1002.85
2017-03-22T01:18:44.325Z,1002.83
2017-03-22T01:19:44.343Z,1002.86
2017-03-22T01:20:44.357Z,1002.81
2017-03-22T01:21:44.374Z,1002.81
2017-03-22T01:22:44.390Z,1002.79
2017-03-22T01:23:44.407Z,1002.82
2017-03-22T01:24:44.419Z,1002.71
2017-03-22T01:25:44.435Z,1002.81
2017-03-22T01:26:44.452Z,1002.8
2017-03-22T01:27:44.468Z,1002.86
2017-03-22T01:28:44.481Z,1002.85
2017-03-22T01:29:44.498Z,1002.78
2017-03-22T01:30:44.515Z,1002.81
2017-03-22T01:31:44.530Z,1002.8
2017-03-22T01:32:44.546Z,1002.79
2017-03-22T01:33:44.560Z,1002.8
2017-03-22T01:34:44.577Z,1002.75
2017-03-22T01:35:44.591Z,1002.76
2017-03-22T01:36:44.606Z,1002.78
2017-03-22T01:37:44.625Z,1002.76
2017-03-22T01:38:44.640Z,1002.76
2017-03-22T01:39:44.653Z,1002.78
2017-03-22T01:40:44.671Z,1002.79
2017-03-22T01:41:44.685Z,1002.78
2017-03-22T01:42:44.702Z,1002.8
2017-03-22T01:43:44.716Z,1002.83
2017-03-22T01:44:44.731Z,1002.84
2017-03-22T01:45:44.749Z,1002.82
2017-03-22T01:46:44.761Z,1002.78
2017-03-22T01:47:44.779Z,1002.79
2017-03-22T01:48:44.795Z,1002.78
2017-03-22T01:49:44.810Z,1002.81
2017-03-22T01:50:44.825Z,1002.77
2017-03-22T01:51:44.840Z,1002.84
2017-03-22T01:52:44.855Z,1002.85
2017-03-22T01:53:44.920Z,1002.87
2017-03-22T01:54:44.888Z,1002.88
2017-03-22T01:55:44.903Z,1002.89
2017-03-22T01:56:44.919Z,1002.86
2017-03-22T01:57:44.934Z,1002.86
2017-03-22T01:58:44.949Z,1002.86
2017-03-22T01:59:44.966Z,1002.88
2017-03-22T02:00:44.981Z,1002.87
2017-03-22T02:01:44.995Z,1002.91
2017-03-22T02:02:45.010Z,1002.91
2017-03-22T02:03:45.030Z,1002.89
2017-03-22T02:04:45.042Z,1002.91
2017-03-22T02:05:45.057Z,1002.92
2017-03-22T02:06:45.074Z,1002.95
2017-03-22T02:07:45.093Z,1002.94
2017-03-22T02:08:45.105Z,1003
2017-03-22T02:09:45.121Z,1002.94
2017-03-22T02:10:45.134Z,1002.96
2017-03-22T02:11:45.150Z,1003.01
2017-03-22T02:12:45.166Z,1002.96
2017-03-22T02:13:45.187Z,1003.02
2017-03-22T02:14:45.196Z,1003.02
2017-03-22T02:15:45.213Z,1002.97
2017-03-22T02:16:45.226Z,1003.01
2017-03-22T02:17:45.243Z,1003
2017-03-22T02:18:45.261Z,1003.01
2017-03-22T02:19:45.273Z,1003.01
2017-03-22T02:20:45.289Z,1002.97
2017-03-22T02:21:45.307Z,1003
2017-03-22T02:22:45.319Z,1003.05
2017-03-22T02:23:45.337Z,1003.03
2017-03-22T02:24:45.353Z,1003.01
2017-03-22T02:25:45.365Z,1003.03
2017-03-22T02:26:45.382Z,1003.06
2017-03-22T02:27:45.397Z,1003.04
2017-03-22T02:28:45.412Z,1003.04
2017-03-22T02:29:45.427Z,1003
2017-03-22T02:30:45.441Z,1003.05
2017-03-22T02:31:45.458Z,1003.02
2017-03-22T02:32:45.474Z,1003.05
2017-03-22T02:33:45.488Z,1003.04
2017-03-22T02:34:45.504Z,1003.05
2017-03-22T02:35:45.519Z,1003.06
2017-03-22T02:36:45.535Z,1003.04
2017-03-22T02:37:45.549Z,1003.02
2017-03-22T02:38:45.564Z,1003.04
2017-03-22T02:39:45.581Z,1003.01
2017-03-22T02:40:45.596Z,1003.05
2017-03-22T02:41:45.610Z,1003.05
2017-03-22T02:42:45.626Z,1003.06
2017-03-22T02:43:45.641Z,1003.06
2017-03-22T02:44:45.657Z,1003.11
2017-03-22T02:45:45.671Z,1003.11
2017-03-22T02:46:45.686Z,1003.08
2017-03-22T02:47:45.703Z,1003.11
2017-03-22T02:48:45.719Z,1003.08
2017-03-22T02:49:45.734Z,1003.08
2017-03-22T02:50:45.750Z,1003.08
2017-03-22T02:51:45.766Z,1003.09
2017-03-22T02:52:45.780Z,1003.07
2017-03-22T02:53:45.794Z,1003.11
2017-03-22T02:54:45.810Z,1003.1
2017-03-22T02:55:45.826Z,1003.12
2017-03-22T02:56:45.841Z,1003.16
2017-03-22T02:57:45.856Z,1003.16
2017-03-22T02:58:45.870Z,1003.1
2017-03-22T02:59:45.886Z,1003.07
2017-03-22T03:00:45.903Z,1003.13
2017-03-22T03:01:45.917Z,1003.14
2017-03-22T03:02:45.931Z,1003.14
2017-03-22T03:03:45.945Z,1003.17
2017-03-22T03:04:45.961Z,1003.15
2017-03-22T03:05:45.976Z,1003.16
2017-03-22T03:06:45.992Z,1003.14
2017-03-22T03:07:46.009Z,1003.13
2017-03-22T03:08:46.021Z,1003.11
2017-03-22T03:09:46.039Z,1003.12
2017-03-22T03:10:46.052Z,1003.1
2017-03-22T03:11:46.068Z,1003.07
2017-03-22T03:12:46.083Z,1003.09
2017-03-22T03:13:46.098Z,1003.08
2017-03-22T03:14:46.113Z,1003.06
2017-03-22T03:15:46.128Z,1003.04
2017-03-22T03:16:46.144Z,1003.11
2017-03-22T03:17:46.160Z,1003.08
2017-03-22T03:18:46.174Z,1003.12
2017-03-22T03:19:46.190Z,1003.11
2017-03-22T03:20:46.203Z,1003.12
2017-03-22T03:21:46.219Z,1003.12
2017-03-22T03:22:46.236Z,1003.14
2017-03-22T03:23:46.250Z,1003.13
2017-03-22T03:24:46.265Z,1003.13
2017-03-22T03:25:46.278Z,1003.13
2017-03-22T03:26:46.294Z,1003.14
2017-03-22T03:27:46.309Z,1003.15
2017-03-22T03:28:46.325Z,1003.15
2017-03-22T03:29:46.340Z,1003.16
2017-03-22T03:30:46.355Z,1003.16
2017-03-22T03:31:46.370Z,1003.16
2017-03-22T03:32:46.384Z,1003.12
2017-03-22T03:33:46.400Z,1003.15
2017-03-22T03:34:46.417Z,1003.16
2017-03-22T03:35:46.428Z,1003.13
2017-03-22T03:36:46.442Z,1003.15
2017-03-22T03:37:46.460Z,1003.17
2017-03-22T03:38:46.475Z,1003.21
2017-03-22T03:39:46.490Z,1003.17
2017-03-22T03:40:46.504Z,1003.21
2017-03-22T03:41:46.520Z,1003.21
2017-03-22T03:42:46.536Z,1003.28
2017-03-22T03:43:46.548Z,1003.3
2017-03-22T03:44:46.563Z,1003.28
2017-03-22T03:45:46.581Z,1003.33
2017-03-22T03:46:46.594Z,1003.32
2017-03-22T03:47:46.609Z,1003.32
2017-03-22T03:48:46.623Z,1003.34
2017-03-22T03:49:46.638Z,1003.36
2017-03-22T03:50:46.655Z,1003.35
2017-03-22T03:51:46.668Z,1003.34
2017-03-22T03:52:46.683Z,1003.33
2017-03-22T03:53:46.698Z,1003.3
2017-03-22T03:54:46.713Z,1003.29
2017-03-22T03:55:46.727Z,1003.28
2017-03-22T03:56:46.741Z,1003.29
2017-03-22T03:57:46.757Z,1003.31
2017-03-22T03:58:46.771Z,1003.37
2017-03-22T03:59:46.788Z,1003.37
2017-03-22T04:00:46.802Z,1003.34
2017-03-22T04:01:46.817Z,1003.36
2017-03-22T04:02:46.832Z,1003.36
2017-03-22T04:03:46.847Z,1003.32
2017-03-22T04:04:46.862Z,1003.33
2017-03-22T04:05:46.877Z,1003.37
2017-03-22T04:06:46.892Z,1003.38
2017-03-22T04:07:46.907Z,1003.41
2017-03-22T04:08:46.921Z,1003.37
2017-03-22T04:09:46.935Z,1003.37
2017-03-22T04:10:46.949Z,1003.33
2017-03-22T04:11:46.967Z,1003.34
2017-03-22T04:12:46.980Z,1003.33
2017-03-22T04:13:46.995Z,1003.34
2017-03-22T04:14:47.011Z,1003.35
2017-03-22T04:15:47.025Z,1003.34
2017-03-22T04:16:47.040Z,1003.39
2017-03-22T04:17:47.058Z,1003.37
2017-03-22T04:18:47.070Z,1003.4
2017-03-22T04:19:47.084Z,1003.47
2017-03-22T04:20:47.097Z,1003.43
2017-03-22T04:21:47.112Z,1003.43
2017-03-22T04:22:47.128Z,1003.46
2017-03-22T04:23:47.145Z,1003.47
2017-03-22T04:24:47.158Z,1003.45
2017-03-22T04:25:47.175Z,1003.46
2017-03-22T04:26:47.189Z,1003.45
2017-03-22T04:27:47.203Z,1003.44
2017-03-22T04:28:47.219Z,1003.42
2017-03-22T04:29:47.232Z,1003.42
2017-03-22T04:30:47.249Z,1003.39
2017-03-22T04:31:47.262Z,1003.41
2017-03-22T04:32:47.277Z,1003.4
2017-03-22T04:33:47.297Z,1003.39
2017-03-22T04:34:47.306Z,1003.36
2017-03-22T04:35:47.349Z,1003.42
2017-03-22T04:36:47.335Z,1003.43
2017-03-22T04:37:47.351Z,1003.46
2017-03-22T04:38:47.365Z,1003.52
2017-03-22T04:39:47.379Z,1003.49
2017-03-22T04:40:47.395Z,1003.51
2017-03-22T04:41:47.410Z,1003.51
2017-03-22T04:42:47.422Z,1003.49
2017-03-22T04:43:47.439Z,1003.53
2017-03-22T04:44:47.453Z,1003.52
2017-03-22T04:45:47.467Z,1003.56
2017-03-22T04:46:47.480Z,1003.57
2017-03-22T04:47:47.497Z,1003.55
2017-03-22T04:48:47.516Z,1003.53
2017-03-22T04:49:47.525Z,1003.49
2017-03-22T04:50:47.539Z,1003.52
2017-03-22T04:51:47.554Z,1003.5
2017-03-22T04:52:47.570Z,1003.55
2017-03-22T04:53:47.584Z,1003.54
2017-03-22T04:54:47.605Z,1003.58
2017-03-22T04:55:47.615Z,1003.57
2017-03-22T04:56:47.628Z,1003.6
2017-03-22T04:57:47.646Z,1003.61
2017-03-22T04:58:47.658Z,1003.61
2017-03-22T04:59:47.672Z,1003.62
2017-03-22T05:00:47.687Z,1003.58
2017-03-22T05:01:47.702Z,1003.58
2017-03-22T05:02:47.717Z,1003.59
2017-03-22T05:03:47.732Z,1003.56
2017-03-22T05:04:47.744Z,1003.6
2017-03-22T05:05:47.760Z,1003.61
2017-03-22T05:06:47.775Z,1003.61
2017-03-22T05:07:47.788Z,1003.61
2017-03-22T05:08:47.804Z,1003.63
2017-03-22T05:09:47.818Z,1003.62
2017-03-22T05:10:47.833Z,1003.62
2017-03-22T05:11:47.846Z,1003.62
2017-03-22T05:12:47.862Z,1003.65
2017-03-22T05:13:47.877Z,1003.7
2017-03-22T05:14:47.891Z,1003.7
2017-03-22T05:15:47.905Z,1003.74
2017-03-22T05:16:47.919Z,1003.78
2017-03-22T05:17:47.937Z,1003.79
2017-03-22T05:18:47.949Z,1003.79
2017-03-22T05:19:47.966Z,1003.77
2017-03-22T05:20:47.979Z,1003.77
2017-03-22T05:21:47.993Z,1003.78
2017-03-22T05:22:48.008Z,1003.77
2017-03-22T05:23:48.022Z,1003.76
2017-03-22T05:24:48.038Z,1003.78
2017-03-22T05:25:48.051Z,1003.81
2017-03-22T05:26:48.067Z,1003.81
2017-03-22T05:27:48.080Z,1003.86
2017-03-22T05:28:48.095Z,1003.89
2017-03-22T05:29:48.108Z,1003.88
2017-03-22T05:30:48.156Z,1003.85
2017-03-22T05:31:48.144Z,1003.89
2017-03-22T05:32:48.153Z,1003.88
2017-03-22T05:33:48.166Z,1003.94
2017-03-22T05:34:48.182Z,1003.91
2017-03-22T05:35:48.197Z,1003.91
2017-03-22T05:36:48.212Z,1003.9
2017-03-22T05:37:48.225Z,1003.88
2017-03-22T05:38:48.238Z,1003.87
2017-03-22T05:39:48.255Z,1003.91
2017-03-22T05:40:48.266Z,1003.9
2017-03-22T05:41:48.283Z,1003.92
2017-03-22T05:42:48.298Z,1003.93
2017-03-22T05:43:48.312Z,1003.92
2017-03-22T05:44:48.325Z,1003.93
2017-03-22T05:45:48.340Z,1003.95
2017-03-22T05:46:48.356Z,1003.97
2017-03-22T05:47:48.370Z,1003.97
2017-03-22T05:48:48.383Z,1004.05
2017-03-22T05:49:48.399Z,1004.09
2017-03-22T05:50:48.412Z,1004.07
2017-03-22T05:51:48.427Z,1004.06
2017-03-22T05:52:48.442Z,1004.05
2017-03-22T05:53:48.458Z,1004.02
2017-03-22T05:54:48.472Z,1004.04
2017-03-22T05:55:48.484Z,1004.01
2017-03-22T05:56:48.499Z,1004.01
2017-03-22T05:57:48.516Z,1004.02
2017-03-22T05:58:48.529Z,1004.03
2017-03-22T05:59:48.567Z,1004.05
2017-03-22T06:00:48.559Z,1004.02
2017-03-22T06:01:48.573Z,1004.02
2017-03-22T06:02:48.587Z,1004
2017-03-22T06:03:48.602Z,1004
2017-03-22T06:04:48.616Z,1003.97
2017-03-22T06:05:48.630Z,1004
2017-03-22T06:06:48.645Z,1003.96
2017-03-22T06:07:48.665Z,1003.98
2017-03-22T06:08:48.674Z,1004.03
2017-03-22T06:09:48.687Z,1004.05
2017-03-22T06:10:48.702Z,1004.04
2017-03-22T06:11:48.717Z,1004.05
2017-03-22T06:12:48.731Z,1004.13
2017-03-22T06:13:48.746Z,1004.07
2017-03-22T06:14:48.759Z,1004.12
2017-03-22T06:15:48.773Z,1004.12
2017-03-22T06:16:48.788Z,1004.13
2017-03-22T06:17:48.805Z,1004.12
2017-03-22T06:18:48.816Z,1004.12
2017-03-22T06:19:48.831Z,1004.12
2017-03-22T06:20:48.899Z,1004.11
2017-03-22T06:21:48.859Z,1004.11
2017-03-22T06:22:48.879Z,1004.1
2017-03-22T06:23:48.889Z,1004.1
2017-03-22T06:24:48.904Z,1004.07
2017-03-22T06:25:48.917Z,1004.11
2017-03-22T06:26:48.932Z,1004.09
2017-03-22T06:27:48.946Z,1004.09
2017-03-22T06:28:48.961Z,1004.13
2017-03-22T06:29:48.976Z,1004.13
2017-03-22T06:30:48.989Z,1004.16
2017-03-22T06:31:49.002Z,1004.17
2017-03-22T06:32:49.019Z,1004.16
2017-03-22T06:33:49.032Z,1004.19
2017-03-22T06:34:49.048Z,1004.2
2017-03-22T06:35:49.061Z,1004.15
2017-03-22T06:36:49.076Z,1004.15
2017-03-22T06:37:49.090Z,1004.16
2017-03-22T06:38:49.104Z,1004.16
2017-03-22T06:39:49.120Z,1004.16
2017-03-22T06:40:49.133Z,1004.16
2017-03-22T06:41:49.146Z,1004.11
2017-03-22T06:42:49.161Z,1004.12
2017-03-22T06:43:49.176Z,1004.12
2017-03-22T06:44:49.190Z,1004.14
2017-03-22T06:45:49.206Z,1004.18
2017-03-22T06:46:49.218Z,1004.19
2017-03-22T06:47:49.235Z,1004.22
2017-03-22T06:48:49.249Z,1004.24
2017-03-22T06:49:49.265Z,1004.2
2017-03-22T06:50:49.278Z,1004.24
2017-03-22T06:51:49.293Z,1004.3
2017-03-22T06:52:49.318Z,1004.26
2017-03-22T06:53:49.320Z,1004.3
2017-03-22T06:54:49.333Z,1004.34
2017-03-22T06:55:49.350Z,1004.35
2017-03-22T06:56:49.364Z,1004.36
2017-03-22T06:57:49.377Z,1004.39
2017-03-22T06:58:49.392Z,1004.36
2017-03-22T06:59:49.407Z,1004.42
2017-03-22T07:00:49.421Z,1004.4
2017-03-22T07:01:49.433Z,1004.43
2017-03-22T07:02:49.450Z,1004.45
2017-03-22T07:03:49.464Z,1004.47
2017-03-22T07:04:49.477Z,1004.43
2017-03-22T07:05:49.492Z,1004.49
2017-03-22T07:06:49.506Z,1004.56
2017-03-22T07:07:49.521Z,1004.57
2017-03-22T07:08:49.536Z,1004.57
2017-03-22T07:09:49.551Z,1004.62
2017-03-22T07:10:49.565Z,1004.6
2017-03-22T07:11:49.578Z,1004.62
2017-03-22T07:12:49.594Z,1004.63
2017-03-22T07:13:49.608Z,1004.62
2017-03-22T07:14:49.623Z,1004.6
2017-03-22T07:15:49.637Z,1004.59
2017-03-22T07:16:49.652Z,1004.54
2017-03-22T07:17:49.667Z,1004.53
2017-03-22T07:18:49.682Z,1004.57
2017-03-22T07:19:49.696Z,1004.5
2017-03-22T07:20:49.710Z,1004.48
2017-03-22T07:21:49.723Z,1004.49
2017-03-22T07:22:49.740Z,1004.53
2017-03-22T07:23:49.753Z,1004.5
2017-03-22T07:24:49.767Z,1004.52
2017-03-22T07:25:49.783Z,1004.54
2017-03-22T07:26:49.797Z,1004.52
2017-03-22T07:27:49.811Z,1004.51
2017-03-22T07:28:49.826Z,1004.51
2017-03-22T07:29:49.842Z,1004.53
2017-03-22T07:30:49.855Z,1004.54
2017-03-22T07:31:49.869Z,1004.49
2017-03-22T07:32:49.885Z,1004.49
2017-03-22T07:33:49.900Z,1004.5
2017-03-22T07:34:49.917Z,1004.5
2017-03-22T07:35:49.930Z,1004.51
2017-03-22T07:36:49.945Z,1004.53
2017-03-22T07:37:49.959Z,1004.54
2017-03-22T07:38:49.976Z,1004.52
2017-03-22T07:39:49.989Z,1004.52
2017-03-22T07:40:50.005Z,1004.55
2017-03-22T07:41:50.018Z,1004.56
2017-03-22T07:42:50.034Z,1004.52
2017-03-22T07:43:50.050Z,1004.54
2017-03-22T07:44:50.063Z,1004.55
2017-03-22T07:45:50.077Z,1004.49
2017-03-22T07:46:50.092Z,1004.48
2017-03-22T07:47:50.109Z,1004.48
2017-03-22T07:48:50.125Z,1004.44
2017-03-22T07:49:50.138Z,1004.45
2017-03-22T07:50:50.153Z,1004.41
2017-03-22T07:51:50.168Z,1004.38
2017-03-22T07:52:50.183Z,1004.44
2017-03-22T07:53:50.197Z,1004.45
2017-03-22T07:54:50.212Z,1004.42
2017-03-22T07:55:50.226Z,1004.42
2017-03-22T07:56:50.241Z,1004.42
2017-03-22T07:57:50.257Z,1004.46
2017-03-22T07:58:50.275Z,1004.43
2017-03-22T07:59:50.286Z,1004.45
2017-03-22T08:00:50.302Z,1004.44
2017-03-22T08:01:50.317Z,1004.44
2017-03-22T08:02:50.332Z,1004.47
2017-03-22T08:03:50.346Z,1004.47
2017-03-22T08:04:50.363Z,1004.5
2017-03-22T08:05:50.378Z,1004.5
2017-03-22T08:06:50.392Z,1004.47
2017-03-22T08:07:50.408Z,1004.5
2017-03-22T08:08:50.425Z,1004.55
2017-03-22T08:09:50.439Z,1004.51
2017-03-22T08:10:50.454Z,1004.57
2017-03-22T08:11:50.468Z,1004.53
2017-03-22T08:12:50.485Z,1004.56
2017-03-22T08:13:50.500Z,1004.58
2017-03-22T08:14:50.515Z,1004.58
2017-03-22T08:15:50.532Z,1004.61
2017-03-22T08:16:50.545Z,1004.62
2017-03-22T08:17:50.561Z,1004.62
2017-03-22T08:18:50.577Z,1004.61
2017-03-22T08:19:50.592Z,1004.58
2017-03-22T08:20:50.608Z,1004.65
2017-03-22T08:21:50.624Z,1004.71
2017-03-22T08:22:50.638Z,1004.68
2017-03-22T08:23:50.653Z,1004.69
2017-03-22T08:24:50.670Z,1004.73
2017-03-22T08:25:50.683Z,1004.69
2017-03-22T08:26:50.701Z,1004.74
2017-03-22T08:27:50.715Z,1004.76
2017-03-22T08:28:50.729Z,1004.74
2017-03-22T08:29:50.745Z,1004.8
2017-03-22T08:30:50.761Z,1004.8
2017-03-22T08:31:50.776Z,1004.8
2017-03-22T08:32:50.791Z,1004.78
2017-03-22T08:33:50.808Z,1004.79
2017-03-22T08:34:50.822Z,1004.78
2017-03-22T08:35:50.838Z,1004.77
2017-03-22T08:36:50.854Z,1004.78
2017-03-22T08:37:50.869Z,1004.77
2017-03-22T08:38:50.922Z,1004.79
2017-03-22T08:39:50.900Z,1004.73
2017-03-22T08:40:50.917Z,1004.77
2017-03-22T08:41:50.932Z,1004.81
2017-03-22T08:42:50.952Z,1004.82
2017-03-22T08:43:50.963Z,1004.84
2017-03-22T08:44:50.979Z,1004.8
2017-03-22T08:45:50.996Z,1004.83
2017-03-22T08:46:51.012Z,1004.88
2017-03-22T08:47:51.028Z,1004.85
2017-03-22T08:48:51.043Z,1004.84
2017-03-22T08:49:51.060Z,1004.87
2017-03-22T08:50:51.074Z,1004.84
2017-03-22T08:51:51.091Z,1004.82
2017-03-22T08:52:51.108Z,1004.81
2017-03-22T08:53:51.124Z,1004.79
2017-03-22T08:54:51.139Z,1004.82
2017-03-22T08:55:51.155Z,1004.78
2017-03-22T08:56:51.170Z,1004.76
2017-03-22T08:57:51.187Z,1004.76
2017-03-22T08:58:51.215Z,1004.78
2017-03-22T08:59:51.219Z,1004.82
2017-03-22T09:00:51.237Z,1004.82
2017-03-22T09:01:51.297Z,1004.82
2017-03-22T09:02:51.267Z,1004.81
2017-03-22T09:03:51.285Z,1004.84
2017-03-22T09:04:51.302Z,1004.87
2017-03-22T09:05:51.317Z,1004.9
2017-03-22T09:06:51.333Z,1004.9
2017-03-22T09:07:51.349Z,1004.91
2017-03-22T09:08:51.372Z,1004.93
2017-03-22T09:09:51.388Z,1004.95
2017-03-22T09:10:51.400Z,1004.95
2017-03-22T09:11:51.417Z,1004.96
2017-03-22T09:12:51.432Z,1004.92
2017-03-22T09:13:51.451Z,1004.88
2017-03-22T09:14:51.467Z,1004.83
2017-03-22T09:15:51.483Z,1004.85
2017-03-22T09:16:51.501Z,1004.85
2017-03-22T09:17:51.516Z,1004.9
2017-03-22T09:18:51.533Z,1004.86
2017-03-22T09:19:51.549Z,1004.86
2017-03-22T09:20:51.566Z,1004.89
2017-03-22T09:21:51.584Z,1004.89
2017-03-22T09:22:51.600Z,1004.87
2017-03-22T09:23:51.616Z,1004.86
2017-03-22T09:24:51.632Z,1004.8
2017-03-22T09:25:51.651Z,1004.84
2017-03-22T09:26:51.667Z,1004.8
2017-03-22T09:27:51.683Z,1004.8
2017-03-22T09:28:51.705Z,1004.87
2017-03-22T09:29:51.719Z,1004.84
2017-03-22T09:30:51.747Z,1004.89
2017-03-22T09:31:51.753Z,1004.86
2017-03-22T09:32:51.769Z,1004.83
2017-03-22T09:33:51.788Z,1004.86
2017-03-22T09:34:51.804Z,1004.85
2017-03-22T09:35:51.823Z,1004.81
2017-03-22T09:36:51.838Z,1004.84
2017-03-22T09:37:51.856Z,1004.79
2017-03-22T09:38:51.872Z,1004.85
2017-03-22T09:39:51.889Z,1004.83
2017-03-22T09:40:51.906Z,1004.82
2017-03-22T09:41:51.924Z,1004.79
2017-03-22T09:42:51.942Z,1004.84
2017-03-22T09:43:51.959Z,1004.82
2017-03-22T09:44:51.978Z,1004.83
2017-03-22T09:45:51.995Z,1004.84
2017-03-22T09:46:52.014Z,1004.82
2017-03-22T09:47:52.030Z,1004.84
2017-03-22T09:48:52.047Z,1004.85
2017-03-22T09:49:52.065Z,1004.85
2017-03-22T09:50:52.083Z,1004.81
2017-03-22T09:51:52.107Z,1004.85
2017-03-22T09:52:52.118Z,1004.87
2017-03-22T09:53:52.136Z,1004.82
2017-03-22T09:54:52.153Z,1004.88
2017-03-22T09:55:52.171Z,1004.9
2017-03-22T09:56:52.189Z,1004.84
2017-03-22T09:57:52.207Z,1004.84
2017-03-22T09:58:52.225Z,1004.79
2017-03-22T09:59:52.243Z,1004.85
2017-03-22T10:00:52.259Z,1004.8
2017-03-22T10:01:52.278Z,1004.81
2017-03-22T10:02:52.296Z,1004.82
2017-03-22T10:03:52.314Z,1004.82
2017-03-22T10:04:52.331Z,1004.82
2017-03-22T10:05:52.351Z,1004.82
2017-03-22T10:06:52.368Z,1004.86
2017-03-22T10:07:52.385Z,1004.88
2017-03-22T10:08:52.405Z,1004.85
2017-03-22T10:09:52.423Z,1004.82
2017-03-22T10:10:52.441Z,1004.79
2017-03-22T10:11:52.459Z,1004.8
2017-03-22T10:12:52.476Z,1004.78
2017-03-22T10:13:52.551Z,1004.76
2017-03-22T10:14:52.513Z,1004.78
2017-03-22T10:15:52.532Z,1004.76
2017-03-22T10:16:52.550Z,1004.7
2017-03-22T10:17:52.573Z,1004.73
2017-03-22T10:18:52.590Z,1004.74
2017-03-22T10:19:52.605Z,1004.74
2017-03-22T10:20:52.624Z,1004.76
2017-03-22T10:21:52.644Z,1004.76
2017-03-22T10:22:52.661Z,1004.76
2017-03-22T10:23:52.678Z,1004.79
2017-03-22T10:24:52.699Z,1004.8
2017-03-22T10:25:52.717Z,1004.82
2017-03-22T10:26:52.736Z,1004.81
2017-03-22T10:27:52.753Z,1004.8
2017-03-22T10:28:52.773Z,1004.75
2017-03-22T10:29:52.790Z,1004.76
2017-03-22T10:30:52.808Z,1004.8
2017-03-22T10:31:52.829Z,1004.8
2017-03-22T10:32:52.849Z,1004.75
2017-03-22T10:33:52.865Z,1004.76
2017-03-22T10:34:52.884Z,1004.75
2017-03-22T10:35:52.903Z,1004.76
2017-03-22T10:36:52.921Z,1004.78
2017-03-22T10:37:52.941Z,1004.76
2017-03-22T10:38:52.962Z,1004.79
2017-03-22T10:39:52.981Z,1004.82
2017-03-22T10:40:52.997Z,1004.84
2017-03-22T10:41:53.018Z,1004.84
2017-03-22T10:42:53.035Z,1004.88
2017-03-22T10:43:53.055Z,1004.92
2017-03-22T10:44:53.073Z,1004.86
2017-03-22T10:45:53.097Z,1004.81
2017-03-22T10:46:53.114Z,1004.76
2017-03-22T10:47:53.137Z,1004.75
2017-03-22T10:48:53.151Z,1004.75
2017-03-22T10:49:53.169Z,1004.73
2017-03-22T10:50:53.188Z,1004.71
2017-03-22T10:51:53.208Z,1004.69
2017-03-22T10:52:53.227Z,1004.72
2017-03-22T10:53:53.247Z,1004.76
2017-03-22T10:54:53.264Z,1004.77
2017-03-22T10:55:53.284Z,1004.77
2017-03-22T10:56:53.304Z,1004.82
2017-03-22T10:57:53.323Z,1004.84
2017-03-22T10:58:53.341Z,1004.85
2017-03-22T10:59:53.359Z,1004.84
2017-03-22T11:00:53.381Z,1004.86
2017-03-22T11:01:53.400Z,1004.89
2017-03-22T11:02:53.418Z,1004.95
2017-03-22T11:03:53.437Z,1005.01
2017-03-22T11:04:53.458Z,1004.98
2017-03-22T11:05:53.476Z,1004.97
2017-03-22T11:06:53.495Z,1005
2017-03-22T11:07:53.514Z,1004.98
2017-03-22T11:08:53.535Z,1004.99
2017-03-22T11:09:53.554Z,1005
2017-03-22T11:10:53.572Z,1005.01
2017-03-22T11:11:53.593Z,1004.97
2017-03-22T11:12:53.612Z,1004.95
2017-03-22T11:13:53.630Z,1005.01
2017-03-22T11:14:53.649Z,1004.98
2017-03-22T11:15:53.703Z,1005.03
2017-03-22T11:16:53.688Z,1005
2017-03-22T11:17:53.709Z,1004.98
2017-03-22T11:18:53.732Z,1004.97
2017-03-22T11:19:53.747Z,1004.98
2017-03-22T11:20:53.766Z,1004.97
2017-03-22T11:21:53.785Z,1004.99
2017-03-22T11:22:53.810Z,1004.97
2017-03-22T11:23:53.825Z,1005
2017-03-22T11:24:53.846Z,1005
2017-03-22T11:25:53.864Z,1004.99
2017-03-22T11:26:53.883Z,1004.95
2017-03-22T11:27:53.904Z,1004.93
2017-03-22T11:28:53.922Z,1004.97
2017-03-22T11:29:53.941Z,1004.91
2017-03-22T11:30:53.960Z,1004.89
2017-03-22T11:31:53.981Z,1004.93
2017-03-22T11:32:54.001Z,1004.92
2017-03-22T11:33:54.019Z,1004.89
2017-03-22T11:34:54.041Z,1004.91
2017-03-22T11:35:54.059Z,1004.91
2017-03-22T11:36:54.078Z,1004.95
2017-03-22T11:37:54.100Z,1004.95
2017-03-22T11:38:54.119Z,1004.94
2017-03-22T11:39:54.139Z,1004.95
2017-03-22T11:40:54.156Z,1004.96
2017-03-22T11:41:54.178Z,1004.93
2017-03-22T11:42:54.198Z,1004.92
2017-03-22T11:43:54.217Z,1004.93
2017-03-22T11:44:54.238Z,1004.91
2017-03-22T11:45:54.257Z,1004.91
2017-03-22T11:46:54.281Z,1004.91
2017-03-22T11:47:54.298Z,1004.87
2017-03-22T11:48:54.318Z,1004.87
2017-03-22T11:49:54.336Z,1004.88
2017-03-22T11:50:54.357Z,1004.89
2017-03-22T11:51:54.377Z,1004.96
2017-03-22T11:52:54.398Z,1004.97
2017-03-22T11:53:54.415Z,1004.96
2017-03-22T11:54:54.436Z,1004.93
2017-03-22T11:55:54.457Z,1004.88
2017-03-22T11:56:54.477Z,1004.87
2017-03-22T11:57:54.494Z,1004.86
2017-03-22T11:58:54.516Z,1004.84
2017-03-22T11:59:54.536Z,1004.81
2017-03-22T12:00:54.555Z,1004.86
2017-03-22T12:01:54.576Z,1004.84
2017-03-22T12:02:54.596Z,1004.83
2017-03-22T12:03:54.616Z,1004.83
2017-03-22T12:04:54.635Z,1004.83
2017-03-22T12:05:54.657Z,1004.81
2017-03-22T12:06:54.676Z,1004.81
2017-03-22T12:07:54.695Z,1004.79
2017-03-22T12:08:54.715Z,1004.77